createdAt,value
2017-11-08T00:01:39.154Z,4.43
2017-11-08T00:04:19.096Z,4.40
2017-11-08T00:06:55.479Z,5.05
2017-11-08T00:09:30.167Z,4.00
2017-11-08T00:12:04.618Z,4.45
2017-11-08T00:14:45.776Z,4.25
2017-11-08T00:17:20.249Z,3.75
2017-11-08T00:19:57.414Z,4.60
2017-11-08T00:22:31.746Z,3.75
2017-11-08T00:25:06.292Z,4.47
2017-11-08T00:27:40.567Z,5.12
2017-11-08T00:30:14.985Z,4.55
2017-11-08T00:32:49.391Z,3.70
2017-11-08T00:35:23.939Z,4.85
2017-11-08T00:37:58.280Z,4.87
2017-11-08T00:40:32.733Z,3.62
2017-11-08T00:43:07.041Z,4.37
2017-11-08T00:45:41.531Z,3.33
2017-11-08T00:48:15.855Z,4.72
2017-11-08T00:50:53.122Z,4.10
2017-11-08T00:53:27.591Z,4.18
2017-11-08T00:56:04.009Z,4.75
2017-11-08T00:58:38.539Z,3.85
2017-11-08T01:01:13.038Z,3.60
2017-11-08T01:03:47.392Z,3.35
2017-11-08T01:06:21.884Z,4.20
2017-11-08T01:08:56.405Z,3.75
2017-11-08T01:11:31.621Z,4.12
2017-11-08T01:14:06.051Z,3.65
2017-11-08T01:16:41.314Z,4.75
2017-11-08T01:19:16.469Z,4.20
2017-11-08T01:21:50.899Z,3.62
2017-11-08T01:24:25.403Z,3.80
2017-11-08T01:26:59.885Z,3.85
2017-11-08T01:29:34.232Z,4.35
2017-11-08T01:32:09.366Z,3.20
2017-11-08T01:34:43.736Z,3.60
2017-11-08T01:37:23.761Z,3.92
2017-11-08T01:39:58.230Z,3.40
2017-11-08T01:42:32.775Z,4.18
2017-11-08T01:45:08.200Z,3.70
2017-11-08T01:47:42.697Z,3.60
2017-11-08T01:50:17.107Z,3.80
2017-11-08T01:52:51.550Z,3.58
2017-11-08T01:55:26.169Z,4.57
2017-11-08T01:58:00.629Z,4.95
2017-11-08T02:00:35.144Z,3.80
2017-11-08T02:03:09.530Z,4.45
2017-11-08T02:05:43.960Z,4.03
2017-11-08T02:08:18.375Z,3.40
2017-11-08T02:10:52.793Z,3.42
2017-11-08T02:13:27.262Z,3.70
2017-11-08T02:16:01.736Z,4.50
2017-11-08T02:18:36.960Z,4.68
2017-11-08T02:21:11.331Z,6.20
2017-11-08T02:23:45.717Z,3.75
2017-11-08T02:26:20.448Z,3.90
2017-11-08T02:28:54.836Z,3.60
2017-11-08T02:31:29.177Z,4.47
2017-11-08T02:34:05.521Z,4.62
2017-11-08T02:36:40.815Z,5.53
2017-11-08T02:39:15.175Z,3.75
2017-11-08T02:41:49.741Z,4.93
2017-11-08T02:44:24.257Z,4.57
2017-11-08T02:46:59.500Z,5.10
2017-11-08T02:49:33.938Z,5.50
2017-11-08T02:52:08.446Z,4.78
2017-11-08T02:54:42.925Z,5.53
2017-11-08T02:57:17.296Z,5.93
2017-11-08T02:59:51.762Z,6.03
2017-11-08T03:02:30.194Z,6.10
2017-11-08T03:05:19.344Z,5.72
2017-11-08T03:07:53.823Z,6.45
2017-11-08T03:10:28.306Z,6.95
2017-11-08T03:13:02.715Z,6.18
2017-11-08T03:15:37.265Z,6.20
2017-11-08T03:18:12.374Z,7.40
2017-11-08T03:20:47.648Z,6.50
2017-11-08T03:23:22.010Z,5.50
2017-11-08T03:25:56.377Z,7.03
2017-11-08T03:28:30.824Z,6.32
2017-11-08T03:31:05.337Z,6.15
2017-11-08T03:33:39.654Z,7.93
2017-11-08T03:36:14.760Z,7.03
2017-11-08T03:38:49.993Z,6.85
2017-11-08T03:41:24.467Z,8.00
2017-11-08T03:43:58.806Z,8.75
2017-11-08T03:46:33.295Z,8.88
2017-11-08T03:49:09.121Z,9.10
2017-11-08T03:51:43.672Z,12.05
2017-11-08T03:54:18.136Z,9.07
2017-11-08T03:56:52.612Z,10.65
2017-11-08T03:59:27.723Z,10.30
2017-11-08T04:02:02.083Z,11.27
2017-11-08T04:04:36.547Z,10.07
2017-11-08T04:07:11.100Z,11.10
2017-11-08T04:09:45.537Z,11.00
2017-11-08T04:12:20.004Z,11.52
2017-11-08T04:14:54.525Z,12.23
2017-11-08T04:17:28.830Z,10.45
2017-11-08T04:20:03.253Z,10.63
2017-11-08T04:22:37.702Z,9.52
2017-11-08T04:25:12.176Z,10.63
2017-11-08T04:27:46.527Z,11.45
2017-11-08T04:30:21.648Z,12.02
2017-11-08T04:32:56.028Z,10.65
2017-11-08T04:35:30.376Z,11.73
2017-11-08T04:38:04.812Z,11.90
2017-11-08T04:40:39.267Z,12.05
2017-11-08T04:43:13.792Z,11.32
2017-11-08T04:45:48.363Z,12.18
2017-11-08T04:48:22.693Z,11.98
2017-11-08T04:50:57.084Z,10.40
2017-11-08T04:53:31.437Z,11.73
2017-11-08T04:56:05.949Z,14.05
2017-11-08T04:58:40.493Z,11.93
2017-11-08T05:01:14.823Z,11.70
2017-11-08T05:03:51.192Z,11.88
2017-11-08T05:06:25.548Z,12.10
2017-11-08T05:09:01.022Z,12.20
2017-11-08T05:11:36.178Z,12.25
2017-11-08T05:14:10.556Z,12.27
2017-11-08T05:16:44.917Z,12.60
2017-11-08T05:19:19.220Z,14.02
2017-11-08T05:21:54.367Z,13.50
2017-11-08T05:24:28.915Z,11.63
2017-11-08T05:27:03.413Z,13.50
2017-11-08T05:29:37.753Z,14.10
2017-11-08T05:32:12.302Z,14.70
2017-11-08T05:34:46.755Z,13.48
2017-11-08T05:37:21.175Z,13.00
2017-11-08T05:39:55.720Z,13.45
2017-11-08T05:42:30.993Z,16.55
2017-11-08T05:45:05.363Z,13.70
2017-11-08T05:47:39.687Z,15.43
2017-11-08T05:50:14.019Z,14.02
2017-11-08T05:52:48.544Z,14.68
2017-11-08T05:55:23.765Z,14.30
2017-11-08T05:57:58.109Z,13.35
2017-11-08T06:00:32.498Z,14.87
2017-11-08T06:03:06.890Z,15.10
2017-11-08T06:05:41.317Z,16.25
2017-11-08T06:08:15.631Z,15.73
2017-11-08T06:10:50.286Z,15.43
2017-11-08T06:13:24.780Z,15.68
2017-11-08T06:15:59.175Z,15.52
2017-11-08T06:18:33.579Z,14.60
2017-11-08T06:21:08.864Z,15.02
2017-11-08T06:23:43.324Z,14.65
2017-11-08T06:26:18.508Z,16.80
2017-11-08T06:28:53.057Z,14.82
2017-11-08T06:31:27.474Z,15.77
2017-11-08T06:34:01.797Z,16.10
2017-11-08T06:36:36.245Z,15.80
2017-11-08T06:39:10.741Z,16.30
2017-11-08T06:41:45.220Z,15.57
2017-11-08T06:44:19.702Z,15.77
2017-11-08T06:46:54.153Z,17.45
2017-11-08T06:49:28.693Z,15.57
2017-11-08T06:52:03.056Z,17.85
2017-11-08T06:54:37.562Z,16.20
2017-11-08T06:57:12.052Z,16.35
2017-11-08T06:59:46.360Z,16.08
2017-11-08T07:02:21.554Z,17.73
2017-11-08T07:04:55.848Z,16.08
2017-11-08T07:07:30.191Z,17.12
2017-11-08T07:10:04.656Z,18.87
2017-11-08T07:12:39.009Z,17.15
2017-11-08T07:15:13.646Z,16.85
2017-11-08T07:17:48.052Z,16.15
2017-11-08T07:20:22.403Z,17.62
2017-11-08T07:22:56.886Z,19.65
2017-11-08T07:25:31.307Z,18.42
2017-11-08T07:28:05.611Z,16.37
2017-11-08T07:30:40.122Z,16.98
2017-11-08T07:33:14.514Z,18.58
2017-11-08T07:35:48.856Z,18.20
2017-11-08T07:38:23.225Z,17.90
2017-11-08T07:40:57.692Z,17.77
2017-11-08T07:43:32.203Z,18.02
2017-11-08T07:46:06.656Z,18.92
2017-11-08T07:48:41.148Z,19.37
2017-11-08T07:51:15.655Z,19.45
2017-11-08T07:53:50.107Z,18.23
2017-11-08T07:56:24.610Z,19.90
2017-11-08T07:58:58.988Z,19.08
2017-11-08T08:01:33.518Z,19.87
2017-11-08T08:04:07.987Z,19.92
2017-11-08T08:06:43.298Z,20.73
2017-11-08T08:09:17.715Z,20.12
2017-11-08T08:11:52.988Z,17.20
2017-11-08T08:14:27.432Z,17.37
2017-11-08T08:17:01.924Z,19.92
2017-11-08T08:19:36.459Z,21.98
2017-11-08T08:22:11.923Z,21.50
2017-11-08T08:24:46.325Z,21.02
2017-11-08T08:27:20.725Z,19.95
2017-11-08T08:29:55.049Z,22.90
2017-11-08T08:32:29.567Z,23.20
2017-11-08T08:35:04.687Z,22.55
2017-11-08T08:37:39.171Z,23.33
2017-11-08T08:40:14.375Z,21.60
2017-11-08T08:42:48.940Z,22.62
2017-11-08T08:45:23.259Z,20.67
2017-11-08T08:47:57.563Z,23.42
2017-11-08T08:50:32.057Z,22.85
2017-11-08T08:53:06.387Z,21.05
2017-11-08T08:55:40.826Z,22.73
2017-11-08T08:58:15.265Z,26.02
2017-11-08T09:00:49.609Z,22.17
2017-11-08T09:03:23.965Z,24.48
2017-11-08T09:05:58.284Z,23.80
2017-11-08T09:08:33.503Z,23.20
2017-11-08T09:11:07.831Z,23.65
2017-11-08T09:13:42.190Z,22.25
2017-11-08T09:16:16.673Z,24.02
2017-11-08T09:18:51.061Z,22.17
2017-11-08T09:21:25.396Z,22.77
2017-11-08T09:23:59.717Z,24.30
2017-11-08T09:26:34.175Z,25.85
2017-11-08T09:29:08.574Z,26.75
2017-11-08T09:31:43.081Z,23.45
2017-11-08T09:34:17.480Z,25.05
2017-11-08T09:36:51.882Z,28.95
2017-11-08T09:39:27.564Z,26.08
2017-11-08T09:42:05.479Z,28.62
2017-11-08T09:44:39.972Z,27.92
2017-11-08T09:47:14.289Z,25.45
2017-11-08T09:49:48.669Z,25.70
2017-11-08T09:52:23.146Z,25.77
2017-11-08T09:54:57.526Z,35.58
2017-11-08T09:57:31.898Z,34.47
2017-11-08T10:00:07.139Z,33.22
2017-11-08T10:02:41.493Z,30.05
2017-11-08T10:05:16.104Z,35.08
2017-11-08T10:07:50.582Z,37.80
2017-11-08T10:10:29.573Z,30.80
2017-11-08T10:13:09.782Z,27.30
2017-11-08T10:15:44.226Z,28.48
2017-11-08T10:18:18.744Z,30.42
2017-11-08T10:20:53.224Z,28.73
2017-11-08T10:23:27.583Z,27.50
2017-11-08T10:26:02.075Z,26.73
2017-11-08T10:28:36.449Z,28.20
2017-11-08T10:31:10.892Z,27.33
2017-11-08T10:33:45.239Z,25.48
2017-11-08T10:36:19.683Z,26.90
2017-11-08T10:38:54.116Z,26.40
2017-11-08T10:41:28.556Z,25.15
2017-11-08T10:44:02.852Z,26.17
2017-11-08T10:46:37.177Z,26.10
2017-11-08T10:49:17.385Z,29.58
2017-11-08T10:51:51.745Z,25.90
2017-11-08T10:54:26.214Z,25.25
2017-11-08T10:57:00.664Z,25.15
2017-11-08T10:59:40.938Z,26.83
2017-11-08T11:02:17.923Z,28.02
2017-11-08T11:04:52.414Z,25.23
2017-11-08T11:07:26.950Z,22.95
2017-11-08T11:10:01.517Z,24.08
2017-11-08T11:12:36.098Z,24.02
2017-11-08T11:15:10.612Z,23.20
2017-11-08T11:17:45.058Z,25.20
2017-11-08T11:20:19.383Z,24.33
2017-11-08T11:22:53.886Z,25.42
2017-11-08T11:25:29.096Z,25.27
2017-11-08T11:28:03.545Z,24.70
2017-11-08T11:30:38.025Z,22.52
2017-11-08T11:33:12.410Z,22.23
2017-11-08T11:35:46.712Z,22.50
2017-11-08T11:38:27.448Z,24.73
2017-11-08T11:41:01.798Z,24.55
2017-11-08T11:43:36.296Z,24.20
2017-11-08T11:46:10.853Z,24.05
2017-11-08T11:48:50.934Z,27.55
2017-11-08T11:51:26.227Z,26.60
2017-11-08T11:54:00.528Z,27.87
2017-11-08T11:56:34.941Z,26.83
2017-11-08T11:59:09.392Z,25.02
2017-11-08T12:01:43.760Z,25.73
2017-11-08T12:04:18.129Z,25.10
2017-11-08T12:06:52.558Z,26.62
2017-11-08T12:09:27.902Z,24.83
2017-11-08T12:12:02.553Z,23.73
2017-11-08T12:14:36.990Z,25.05
2017-11-08T12:17:11.309Z,26.45
2017-11-08T12:19:47.541Z,24.10
2017-11-08T12:22:21.910Z,25.73
2017-11-08T12:24:56.319Z,25.37
2017-11-08T12:27:31.752Z,24.35
2017-11-08T12:30:07.268Z,24.08
2017-11-08T12:32:41.845Z,23.95
2017-11-08T12:35:16.358Z,23.05
2017-11-08T12:37:50.697Z,25.52
2017-11-08T12:40:25.209Z,22.55
2017-11-08T12:43:00.566Z,25.23
2017-11-08T12:45:34.946Z,22.02
2017-11-08T12:48:09.437Z,25.05
2017-11-08T12:50:43.964Z,22.90
2017-11-08T12:53:19.348Z,24.77
2017-11-08T12:55:54.514Z,24.05
2017-11-08T12:58:29.959Z,27.00
2017-11-08T13:01:05.216Z,22.02
2017-11-08T13:03:39.756Z,24.25
2017-11-08T13:06:14.241Z,23.25
2017-11-08T13:08:48.875Z,23.77
2017-11-08T13:11:28.972Z,23.30
2017-11-08T13:14:03.672Z,26.87
2017-11-08T13:16:38.132Z,24.95
2017-11-08T13:19:12.510Z,23.80
2017-11-08T13:21:46.873Z,24.08
2017-11-08T13:24:21.223Z,23.17
2017-11-08T13:26:55.628Z,26.33
2017-11-08T13:29:30.197Z,25.80
2017-11-08T13:32:04.663Z,23.30
2017-11-08T13:34:39.147Z,25.90
2017-11-08T13:37:13.578Z,26.92
2017-11-08T13:39:50.849Z,28.00
2017-11-08T13:42:25.208Z,26.33
2017-11-08T13:44:59.544Z,25.95
2017-11-08T13:47:34.045Z,24.63
2017-11-08T13:50:08.596Z,26.23
2017-11-08T13:52:43.104Z,27.23
2017-11-08T13:55:17.479Z,25.83
2017-11-08T13:57:52.751Z,31.08
2017-11-08T14:00:27.313Z,28.67
2017-11-08T14:03:01.795Z,27.95
2017-11-08T14:05:36.265Z,29.67
2017-11-08T14:08:10.734Z,29.35
2017-11-08T14:10:45.081Z,31.40
2017-11-08T14:13:19.446Z,30.77
2017-11-08T14:15:53.794Z,33.75
2017-11-08T14:18:28.283Z,30.48
2017-11-08T14:21:03.607Z,26.25
2017-11-08T14:23:38.061Z,28.23
2017-11-08T14:26:12.388Z,28.12
2017-11-08T14:28:46.943Z,26.25
2017-11-08T14:31:21.586Z,28.45
2017-11-08T14:33:55.924Z,26.75
2017-11-08T14:36:30.345Z,26.05
2017-11-08T14:39:04.904Z,24.42
2017-11-08T14:41:39.251Z,22.00
2017-11-08T14:44:13.717Z,23.62
2017-11-08T14:46:48.065Z,23.90
2017-11-08T14:49:22.438Z,23.35
2017-11-08T14:51:59.711Z,23.92
2017-11-08T14:54:34.782Z,23.30
2017-11-08T14:57:09.291Z,24.12
2017-11-08T14:59:44.675Z,23.15
2017-11-08T15:02:19.059Z,23.25
2017-11-08T15:04:54.240Z,24.25
2017-11-08T15:07:28.720Z,26.62
2017-11-08T15:10:03.073Z,26.33
2017-11-08T15:12:44.052Z,27.33
2017-11-08T15:15:19.495Z,22.48
2017-11-08T15:17:56.842Z,24.65
2017-11-08T15:20:31.208Z,22.62
2017-11-08T15:23:05.720Z,22.02
2017-11-08T15:25:40.168Z,22.17
2017-11-08T15:28:14.561Z,22.35
2017-11-08T15:30:49.767Z,24.87
2017-11-08T15:33:24.294Z,21.05
2017-11-08T15:35:59.638Z,21.08
2017-11-08T15:38:34.197Z,25.60
2017-11-08T15:41:08.687Z,25.02
2017-11-08T15:43:43.332Z,24.50
2017-11-08T15:46:18.034Z,29.00
2017-11-08T15:48:52.588Z,25.75
2017-11-08T15:51:27.781Z,25.33
2017-11-08T15:54:02.497Z,26.45
2017-11-08T15:56:36.945Z,27.35
2017-11-08T15:59:11.481Z,31.17
2017-11-08T16:01:45.973Z,26.15
2017-11-08T16:04:26.004Z,26.37
2017-11-08T16:07:00.699Z,28.02
2017-11-08T16:09:35.252Z,31.52
2017-11-08T16:12:09.719Z,26.87
2017-11-08T16:14:44.263Z,27.40
2017-11-08T16:17:18.729Z,24.15
2017-11-08T16:19:53.164Z,28.25
2017-11-08T16:22:27.619Z,27.33
2017-11-08T16:25:02.066Z,26.08
2017-11-08T16:27:36.408Z,26.40
2017-11-08T16:30:11.001Z,26.50
2017-11-08T16:32:45.438Z,28.62
2017-11-08T16:35:19.833Z,27.87
2017-11-08T16:37:54.324Z,26.60
2017-11-08T16:40:29.633Z,26.30
2017-11-08T16:43:03.988Z,25.52
2017-11-08T16:45:38.367Z,27.27
2017-11-08T16:48:13.731Z,26.52
2017-11-08T16:50:48.840Z,27.45
2017-11-08T16:53:23.213Z,22.80
2017-11-08T16:55:57.720Z,23.73
2017-11-08T16:58:32.092Z,27.40
2017-11-08T17:01:06.416Z,29.27
2017-11-08T17:03:40.732Z,27.45
2017-11-08T17:06:15.216Z,28.12
2017-11-08T17:08:49.705Z,28.98
2017-11-08T17:11:24.216Z,25.62
2017-11-08T17:13:58.705Z,26.52
2017-11-08T17:16:33.025Z,27.98
2017-11-08T17:19:07.570Z,33.15
2017-11-08T17:21:42.054Z,31.80
2017-11-08T17:24:16.476Z,31.87
2017-11-08T17:26:50.866Z,30.55
2017-11-08T17:29:25.273Z,32.78
2017-11-08T17:31:59.791Z,33.20
2017-11-08T17:34:34.289Z,32.35
2017-11-08T17:37:08.734Z,25.85
2017-11-08T17:39:43.290Z,29.10
2017-11-08T17:42:17.795Z,66.07
2017-11-08T17:44:52.210Z,55.03
2017-11-08T17:47:26.610Z,40.72
2017-11-08T17:50:01.106Z,46.65
2017-11-08T17:52:35.465Z,34.83
2017-11-08T17:55:09.956Z,31.23
2017-11-08T17:57:44.376Z,32.75
2017-11-08T18:00:18.895Z,29.92
2017-11-08T18:02:53.430Z,33.70
2017-11-08T18:05:27.984Z,39.83
2017-11-08T18:08:02.452Z,35.30
2017-11-08T18:10:36.891Z,35.13
2017-11-08T18:13:11.369Z,30.75
2017-11-08T18:15:45.845Z,34.92
2017-11-08T18:18:20.361Z,35.58
2017-11-08T18:20:54.886Z,36.35
2017-11-08T18:23:29.368Z,33.28
2017-11-08T18:26:03.825Z,32.47
2017-11-08T18:28:38.231Z,29.65
2017-11-08T18:31:13.505Z,29.40
2017-11-08T18:33:47.968Z,26.35
2017-11-08T18:36:22.469Z,28.40
2017-11-08T18:38:56.776Z,27.77
2017-11-08T18:41:31.220Z,27.50
2017-11-08T18:44:05.574Z,27.00
2017-11-08T18:46:39.981Z,26.55
2017-11-08T18:49:14.316Z,28.87
2017-11-08T18:51:48.732Z,31.98
2017-11-08T18:54:23.237Z,34.20
2017-11-08T18:56:57.685Z,30.10
2017-11-08T18:59:32.169Z,28.50
2017-11-08T19:02:06.624Z,32.08
2017-11-08T19:04:41.148Z,29.90
2017-11-08T19:07:15.683Z,31.08
2017-11-08T19:09:50.036Z,30.70
2017-11-08T19:12:24.808Z,29.37
2017-11-08T19:15:00.324Z,26.87
2017-11-08T19:17:35.508Z,32.25
2017-11-08T19:20:09.814Z,29.58
2017-11-08T19:22:44.128Z,28.90
2017-11-08T19:25:19.390Z,27.73
2017-11-08T19:27:53.720Z,28.90
2017-11-08T19:30:28.120Z,30.45
2017-11-08T19:33:02.484Z,29.55
2017-11-08T19:35:36.800Z,29.08
2017-11-08T19:38:11.250Z,27.08
2017-11-08T19:40:45.574Z,30.35
2017-11-08T19:43:20.060Z,31.42
2017-11-08T19:45:54.609Z,30.08
2017-11-08T19:48:28.947Z,30.10
2017-11-08T19:51:03.308Z,28.27
2017-11-08T19:53:38.776Z,29.52
2017-11-08T19:56:13.197Z,31.95
2017-11-08T19:58:49.052Z,31.30
2017-11-08T20:01:23.713Z,28.27
2017-11-08T20:03:58.251Z,29.87
2017-11-08T20:06:32.619Z,32.90
2017-11-08T20:09:07.020Z,36.72
2017-11-08T20:11:41.565Z,37.40
2017-11-08T20:14:16.109Z,36.65
2017-11-08T20:16:50.583Z,37.13
2017-11-08T20:19:25.020Z,30.98
2017-11-08T20:22:00.381Z,27.62
2017-11-08T20:24:35.651Z,29.00
2017-11-08T20:27:10.019Z,29.75
2017-11-08T20:29:44.370Z,26.62
2017-11-08T20:32:18.749Z,25.92
2017-11-08T20:34:54.932Z,28.12
2017-11-08T20:37:29.420Z,29.12
2017-11-08T20:40:03.856Z,27.85
2017-11-08T20:42:38.387Z,28.62
2017-11-08T20:45:12.810Z,28.05
2017-11-08T20:47:48.033Z,29.20
2017-11-08T20:50:22.482Z,26.23
2017-11-08T20:52:56.920Z,28.48
2017-11-08T20:55:32.383Z,27.13
2017-11-08T20:58:07.798Z,30.70
2017-11-08T21:00:42.077Z,28.65
2017-11-08T21:03:16.494Z,39.20
2017-11-08T21:05:50.992Z,44.60
2017-11-08T21:08:25.355Z,33.95
2017-11-08T21:10:59.812Z,32.17
2017-11-08T21:13:34.415Z,33.13
2017-11-08T21:16:09.891Z,30.62
2017-11-08T21:18:44.484Z,32.78
2017-11-08T21:21:18.990Z,32.90
2017-11-08T21:23:53.315Z,29.10
2017-11-08T21:26:27.800Z,30.92
2017-11-08T21:29:02.224Z,29.75
2017-11-08T21:31:36.745Z,30.05
2017-11-08T21:34:11.157Z,30.30
2017-11-08T21:36:45.467Z,33.17
2017-11-08T21:39:20.116Z,31.30
2017-11-08T21:41:55.211Z,31.77
2017-11-08T21:44:29.735Z,32.42
2017-11-08T21:47:04.095Z,32.25
2017-11-08T21:49:38.524Z,30.67
2017-11-08T21:52:13.022Z,29.67
2017-11-08T21:54:47.455Z,29.87
2017-11-08T21:57:22.022Z,33.47
2017-11-08T21:59:56.785Z,30.77
2017-11-08T22:02:31.108Z,32.38
2017-11-08T22:05:06.356Z,32.00
2017-11-08T22:07:41.564Z,31.95
2017-11-08T22:10:15.989Z,32.05
2017-11-08T22:12:50.450Z,34.05
2017-11-08T22:15:24.892Z,32.65
2017-11-08T22:17:59.362Z,32.60
2017-11-08T22:20:33.897Z,40.78
2017-11-08T22:23:08.329Z,31.10
2017-11-08T22:25:42.821Z,31.25
2017-11-08T22:28:17.403Z,29.92
2017-11-08T22:30:51.830Z,33.17
2017-11-08T22:33:26.400Z,27.92
2017-11-08T22:36:00.917Z,29.20
2017-11-08T22:38:35.332Z,31.90
2017-11-08T22:41:09.729Z,32.85
2017-11-08T22:43:44.076Z,28.52
2017-11-08T22:46:18.464Z,31.30
2017-11-08T22:48:52.857Z,28.42
2017-11-08T22:51:27.331Z,30.48
2017-11-08T22:54:01.857Z,28.52
2017-11-08T22:56:36.376Z,29.08
2017-11-08T22:59:10.789Z,29.65
2017-11-08T23:01:45.298Z,29.02
2017-11-08T23:04:19.650Z,27.60
2017-11-08T23:06:54.848Z,29.50
2017-11-08T23:09:29.206Z,29.05
2017-11-08T23:12:03.691Z,29.17
2017-11-08T23:14:38.033Z,31.75
2017-11-08T23:17:12.545Z,29.87
2017-11-08T23:19:47.040Z,29.23
2017-11-08T23:22:21.467Z,28.30
2017-11-08T23:24:55.793Z,28.15
2017-11-08T23:27:30.197Z,29.00
2017-11-08T23:30:04.597Z,28.50
2017-11-08T23:32:39.913Z,26.92
2017-11-08T23:35:15.336Z,29.40
2017-11-08T23:37:49.705Z,27.50
2017-11-08T23:40:24.135Z,30.62
2017-11-08T23:42:58.568Z,29.67
2017-11-08T23:45:33.082Z,27.62
2017-11-08T23:48:07.552Z,31.15
2017-11-08T23:50:42.737Z,29.90
2017-11-08T23:53:17.999Z,30.20
2017-11-08T23:55:55.300Z,26.77
2017-11-08T23:58:29.709Z,28.98
